Aurora, IL (60504)

20:23 CDT le 24 octobre 2014 (GMT -0500)
Summerlin | Change Station
CLOSE
Current Station
Stations météorologiques personnelles
Location: Aurora, IL
Altitude: 709 ft
Stations météo à proximité

Alt. 709 ft 41.72 °N, 88.27 °W | Updated 6 minutes ago

Partiellement nuageux
Partiellement nuageux
59.4 ° F
Paraît 59.4 ° F
N
2.7
Vent Variable Vent de Est

Aujourd'hui
Haut(e) -- | Bas -- ° F
--% Risque de précip.
Hier
Haut(e) -- | Bas -- ° F
Precip. -- pouce
7:15 AM 5:58 PM
Nouvelle lune, 1% visible
Pression 29.95 pouce
Visibilité 10.0 Miles terrestres
Nuages Nuages épars 7500 ft
Nuageux 9000 ft
Point de rosée 49 ° F
Humidité 69%
Précipitations 0.00 pouce
Profondeur de la couche neigeuse Non disponible.
UV 0 sur 12
Pollen 1.10 sur 12
Ozone Bon
PM2.5 Bon
Flu Activity No Activity
METAR KDPA 250052Z 00000KT 10SM SCT075 BKN090 12/08 A2995 RMK AO2 SLP142 T01220083

More Conditions Fewer Conditions

Pression 29.95 pouce
Visibilité 10.0 Miles terrestres
Nuages Nuages épars 7500 ft
Nuageux 9000 ft
Point de rosée 49 ° F
Humidité 69%
Précipitations 0.00 pouce
Profondeur de la couche neigeuse Non disponible.
UV 0 sur 12
Pollen 1.10 sur 12
Ozone Bon
PM2.5 Bon
Flu Activity No Activity
METAR KDPA 250052Z 00000KT 10SM SCT075 BKN090 12/08 A2995 RMK AO2 SLP142 T01220083

More Conditions Fewer Conditions

10-Day Weather Forecast

Almanac

Astronomie

Oct. 24, 2014 Lever Coucher
Temps réel 07:15 CDT 17:58 CDT
Crépuscule civil 06:47 CDT 18:26 CDT
Crépuscule nautique 06:14 CDT 18:58 CDT
Crépuscule astronomique 05:42 CDT 19:31 CDT
Lune 07:54 CDT (10/24) 18:37 CDT (10/24)
Durée de lumière visible 11h 39m
Longueur du jour
10h 42m
Tomorrow will be 2m 36s shorter.
Nouvelle lune, 1% of the Moon is Illuminated
Aujourd'hui
Nouvelle lune
Oct 30
Premier quartier
Nov 6
Pleine lune
Nov 14
Dernier quartier
Nov 22
Nouveau

Extrêmes aujourd'hui

State Highs State Lows

Community

WunderPhotos

Upload Photos

1,764,741 Photos téléchargées !

WunderBlogs® & News

Nearby

Qualité de l'air

  Qualité de l'air Indice de la qualité de l'air Polluant
Hier Moyen
PM2.5
Hier Bon
OZONE
Actuel Bon
PM2.5
Actuel Bon
OZONE
vendredi Moyen
PM2.5
samedi Bon
PM2.5
dimanche Bon
PM2.5
lundi Moyen
PM2.5
mardi Bon
PM2.5
mercredi Bon
PM2.5

Épaisseur de neige

Station Depth Altitude
Pas de nouvelles chutes de neige

Activité sismique

Ville Distance Mag. Time & Date
No recent earthquake activity has been reported nearby.
Minimum magnitude displayed is 2.5.

Températures des eaux côtières

Lieu Température
Aucun rapport de station

Stations météo à proximité